createdAt,value
2023-05-06T00:09:21.530Z,96642.77
2023-05-06T00:13:13.739Z,96639.70
2023-05-06T00:16:58.150Z,96639.79
2023-05-06T00:36:19.248Z,96644.56
2023-05-06T00:39:50.959Z,96641.32
2023-05-06T00:43:36.564Z,96646.30
2023-05-06T00:46:40.356Z,96651.09
2023-05-06T00:50:31.888Z,96647.60
2023-05-06T00:54:11.306Z,96649.83
2023-05-06T00:57:45.040Z,96649.82
2023-05-06T01:01:19.484Z,96650.84
2023-05-06T01:04:31.253Z,96653.23
2023-05-06T01:23:23.087Z,96648.10
2023-05-06T01:27:17.160Z,96653.79
2023-05-06T01:31:10.472Z,96653.84
2023-05-06T01:35:27.989Z,96654.15
2023-05-06T01:38:58.505Z,96655.58
2023-05-06T01:42:13.277Z,96656.62
2023-05-06T01:45:54.920Z,96650.38
2023-05-06T01:49:18.696Z,96649.00
2023-05-06T01:52:51.484Z,96648.03
2023-05-06T01:56:28.437Z,96649.72
2023-05-06T02:15:25.693Z,96655.48
2023-05-06T02:19:17.108Z,96657.98
2023-05-06T02:23:10.670Z,96657.32
2023-05-06T02:26:56.364Z,96658.73
2023-05-06T02:30:30.397Z,96654.65
2023-05-06T02:34:22.709Z,96652.05
2023-05-06T02:38:07.934Z,96658.82
2023-05-06T03:01:21.185Z,96658.32
2023-05-06T03:05:13.810Z,96661.42
2023-05-06T03:09:05.960Z,96659.80
2023-05-06T03:12:58.706Z,96664.77
2023-05-06T03:36:19.727Z,96672.50
2023-05-06T03:40:12.493Z,96678.20
2023-05-06T03:44:04.914Z,96681.65
2023-05-06T03:47:58.558Z,96677.71
2023-05-06T03:52:13.959Z,96676.21
2023-05-06T03:56:06.914Z,96678.99
2023-05-06T04:11:46.913Z,96688.32
2023-05-06T04:15:37.660Z,96689.27
2023-05-06T04:19:30.184Z,96687.52
2023-05-06T04:35:15.318Z,96690.16
2023-05-06T04:39:07.187Z,96695.25
2023-05-06T05:05:51.185Z,96683.86
2023-05-06T05:09:02.726Z,96683.08
2023-05-06T05:12:17.741Z,96685.44
2023-05-06T05:15:33.286Z,96683.73
2023-05-06T05:18:23.727Z,96677.11
2023-05-06T05:22:10.356Z,96674.93
2023-05-06T05:25:25.059Z,96675.27
2023-05-06T05:28:32.096Z,96673.21
2023-05-06T05:31:57.225Z,96675.19
2023-05-06T05:35:13.563Z,96671.05
2023-05-06T05:38:40.381Z,96670.86
2023-05-06T05:42:10.978Z,96672.17
2023-05-06T05:45:28.486Z,96675.31
2023-05-06T05:48:40.772Z,96668.89
2023-05-06T05:52:22.979Z,96671.16
2023-05-06T05:55:55.069Z,96665.14
2023-05-06T06:02:48.667Z,96658.81
2023-05-06T06:06:03.766Z,96656.61
2023-05-06T06:09:24.947Z,96651.92
2023-05-06T06:12:22.785Z,96656.41
2023-05-06T06:25:50.174Z,96661.22
2023-05-06T06:31:57.944Z,96665.17
2023-05-06T06:35:04.810Z,96659.27
2023-05-06T06:38:24.068Z,96655.66
2023-05-06T06:41:35.321Z,96659.70
2023-05-06T06:45:08.432Z,96654.67
2023-05-06T06:48:02.494Z,96652.41
2023-05-06T06:50:52.982Z,96649.17
2023-05-06T06:53:43.719Z,96646.88
2023-05-06T06:56:54.522Z,96644.76
2023-05-06T06:59:48.551Z,96646.44
2023-05-06T07:03:20.092Z,96638.02
2023-05-06T07:06:29.621Z,96634.26
2023-05-06T07:09:40.340Z,96633.83
2023-05-06T07:13:05.192Z,96634.84
2023-05-06T07:16:07.886Z,96636.55
2023-05-06T07:18:51.252Z,96641.10
2023-05-06T07:22:08.962Z,96639.39
2023-05-06T07:24:46.215Z,96638.33
2023-05-06T07:27:41.242Z,96638.27
2023-05-06T07:30:52.372Z,96636.87
2023-05-06T07:33:49.674Z,96634.67
2023-05-06T07:36:46.633Z,96627.33
2023-05-06T07:39:44.697Z,96625.14
2023-05-06T07:42:32.991Z,96623.90
2023-05-06T07:45:48.743Z,96626.73
2023-05-06T07:48:35.370Z,96618.08
2023-05-06T07:51:41.356Z,96619.45
2023-05-06T07:54:48.777Z,96618.67
2023-05-06T07:58:07.624Z,96614.00
2023-05-06T08:01:15.399Z,96623.67
2023-05-06T08:04:23.983Z,96615.63
2023-05-06T08:07:26.144Z,96612.80
2023-05-06T08:10:37.118Z,96611.70
2023-05-06T08:13:33.935Z,96608.68
2023-05-06T08:16:27.988Z,96609.80
2023-05-06T08:19:56.333Z,96611.75
2023-05-06T08:23:02.424Z,96608.06
2023-05-06T08:26:24.548Z,96606.39
2023-05-06T08:29:28.195Z,96602.39
2023-05-06T08:32:22.123Z,96599.30
2023-05-06T08:35:01.709Z,96600.71
2023-05-06T08:38:14.356Z,96596.48
2023-05-06T08:41:29.643Z,96594.36
2023-05-06T08:44:33.955Z,96594.56
2023-05-06T08:47:16.377Z,96597.73
2023-05-06T08:49:53.580Z,96595.86
2023-05-06T08:52:29.359Z,96596.30
2023-05-06T08:55:20.601Z,96591.88
2023-05-06T08:58:04.393Z,96593.39
2023-05-06T09:01:03.667Z,96587.11
2023-05-06T09:03:56.910Z,96584.06
2023-05-06T09:06:50.800Z,96586.54
2023-05-06T09:09:43.943Z,96583.98
2023-05-06T09:12:39.993Z,96584.81
2023-05-06T09:15:42.658Z,96588.00
2023-05-06T09:18:32.092Z,96585.77
2023-05-06T09:21:08.709Z,96584.79
2023-05-06T09:23:42.837Z,96579.96
2023-05-06T09:26:23.425Z,96587.91
2023-05-06T09:29:47.688Z,96582.92
2023-05-06T09:32:50.571Z,96584.42
2023-05-06T09:35:47.359Z,96578.92
2023-05-06T09:38:27.729Z,96580.92
2023-05-06T09:41:15.674Z,96579.42
2023-05-06T09:43:52.533Z,96576.42
2023-05-06T09:47:01.843Z,96571.80
2023-05-06T09:49:39.392Z,96570.84
2023-05-06T09:52:12.296Z,96571.91
2023-05-06T09:54:55.428Z,96569.36
2023-05-06T09:57:26.632Z,96565.06
2023-05-06T10:00:19.739Z,96566.52
2023-05-06T10:02:51.215Z,96562.60
2023-05-06T10:05:26.919Z,96562.61
2023-05-06T10:07:59.668Z,96560.88
2023-05-06T10:10:35.897Z,96557.45
2023-05-06T10:13:06.482Z,96559.64
2023-05-06T10:15:37.964Z,96558.23
2023-05-06T10:18:16.310Z,96556.00
2023-05-06T10:21:01.561Z,96556.73
2023-05-06T10:23:47.550Z,96552.64
2023-05-06T10:26:22.404Z,96537.79
2023-05-06T10:29:13.964Z,96538.98
2023-05-06T10:32:05.942Z,96536.84
2023-05-06T10:34:54.023Z,96533.64
2023-05-06T10:37:31.085Z,96530.95
2023-05-06T10:40:02.222Z,96524.65
2023-05-06T10:42:36.112Z,96535.02
2023-05-06T10:45:07.727Z,96531.11
2023-05-06T10:48:21.272Z,96532.54
2023-05-06T10:50:51.568Z,96533.42
2023-05-06T10:54:07.311Z,96533.75
2023-05-06T10:57:03.191Z,96528.52
2023-05-06T10:59:34.566Z,96523.39
2023-05-06T11:02:14.402Z,96519.05
2023-05-06T11:05:02.249Z,96517.34
2023-05-06T11:07:37.152Z,96517.70
2023-05-06T11:10:12.502Z,96516.83
2023-05-06T11:13:02.751Z,96517.80
2023-05-06T11:15:41.657Z,96514.77
2023-05-06T11:18:33.996Z,96516.19
2023-05-06T11:21:14.783Z,96524.23
2023-05-06T11:23:49.840Z,96520.56
2023-05-06T11:26:33.822Z,96518.89
2023-05-06T11:29:04.802Z,96509.81
2023-05-06T11:31:44.593Z,96504.34
2023-05-06T11:34:32.654Z,96502.60
2023-05-06T11:37:08.267Z,96503.72
2023-05-06T11:39:50.174Z,96505.04
2023-05-06T11:42:33.109Z,96502.11
2023-05-06T11:45:07.837Z,96496.88
2023-05-06T11:47:44.992Z,96493.37
2023-05-06T11:50:22.945Z,96492.34
2023-05-06T11:52:56.504Z,96492.69
2023-05-06T11:55:28.546Z,96490.15
2023-05-06T11:58:05.002Z,96486.70
2023-05-06T12:00:49.728Z,96488.08
2023-05-06T12:03:22.576Z,96480.65
2023-05-06T12:05:56.855Z,96483.68
2023-05-06T12:08:36.412Z,96478.16
2023-05-06T12:11:11.868Z,96477.59
2023-05-06T12:13:41.530Z,96477.43
2023-05-06T12:16:26.249Z,96476.82
2023-05-06T12:19:07.265Z,96476.86
2023-05-06T12:21:47.480Z,96471.44
2023-05-06T12:24:34.166Z,96474.13
2023-05-06T12:27:06.245Z,96475.77
2023-05-06T12:29:40.081Z,96475.75
2023-05-06T12:32:12.373Z,96472.41
2023-05-06T12:35:07.976Z,96472.84
2023-05-06T12:37:42.771Z,96466.98
2023-05-06T12:40:38.813Z,96457.17
2023-05-06T12:43:31.773Z,96461.41
2023-05-06T12:46:18.429Z,96458.84
2023-05-06T12:49:17.313Z,96449.37
2023-05-06T12:52:08.565Z,96454.98
2023-05-06T12:55:04.740Z,96454.16
2023-05-06T12:57:37.649Z,96454.09
2023-05-06T13:00:16.514Z,96454.59
2023-05-06T13:02:52.476Z,96455.61
2023-05-06T13:05:40.836Z,96455.31
2023-05-06T13:08:18.025Z,96450.83
2023-05-06T13:10:50.827Z,96458.72
2023-05-06T13:13:37.195Z,96458.91
2023-05-06T13:16:20.505Z,96453.77
2023-05-06T13:19:00.768Z,96449.92
2023-05-06T13:21:34.796Z,96447.73
2023-05-06T13:24:24.287Z,96445.98
2023-05-06T13:26:57.632Z,96447.48
2023-05-06T13:29:35.685Z,96448.23
2023-05-06T13:32:08.641Z,96449.77
2023-05-06T13:34:42.574Z,96448.70
2023-05-06T13:37:13.473Z,96450.10
2023-05-06T13:40:05.469Z,96456.06
2023-05-06T13:42:42.051Z,96472.99
2023-05-06T13:45:34.149Z,96495.48
2023-05-06T13:48:10.694Z,96497.09
2023-05-06T13:50:53.945Z,96509.91
2023-05-06T13:53:56.267Z,96509.64
2023-05-06T13:56:49.280Z,96504.41
2023-05-06T13:59:36.859Z,96497.35
2023-05-06T14:02:39.198Z,96483.61
2023-05-06T14:05:12.486Z,96473.48
2023-05-06T14:08:09.766Z,96467.98
2023-05-06T14:11:07.061Z,96463.63
2023-05-06T14:13:56.166Z,96465.53
2023-05-06T14:17:03.355Z,96466.20
2023-05-06T14:19:53.275Z,96466.42
2023-05-06T14:22:41.896Z,96470.31
2023-05-06T14:25:59.093Z,96465.50
2023-05-06T14:28:39.385Z,96461.26
2023-05-06T14:32:16.329Z,96463.49
2023-05-06T14:35:13.148Z,96472.07
2023-05-06T14:38:24.677Z,96464.98
2023-05-06T14:41:14.555Z,96467.27
2023-05-06T14:44:32.132Z,96461.90
2023-05-06T14:47:09.633Z,96461.41
2023-05-06T14:50:10.174Z,96463.69
2023-05-06T14:53:15.850Z,96461.85
2023-05-06T14:55:57.679Z,96459.80
2023-05-06T14:58:45.103Z,96455.94
2023-05-06T15:01:52.379Z,96453.09
2023-05-06T15:04:46.264Z,96455.66
2023-05-06T15:07:43.940Z,96458.80
2023-05-06T15:10:41.185Z,96454.91
2023-05-06T15:13:48.651Z,96458.02
2023-05-06T15:16:32.568Z,96457.68
2023-05-06T15:19:28.991Z,96453.48
2023-05-06T15:22:24.789Z,96454.57
2023-05-06T15:25:06.639Z,96450.55
2023-05-06T15:27:46.301Z,96444.95
2023-05-06T15:30:31.617Z,96438.85
2023-05-06T15:33:28.832Z,96438.07
2023-05-06T15:36:27.203Z,96432.23
2023-05-06T15:39:50.689Z,96426.35
2023-05-06T15:42:41.508Z,96426.36
2023-05-06T15:45:45.749Z,96425.55
2023-05-06T15:48:57.590Z,96425.22
2023-05-06T15:51:51.032Z,96425.64
2023-05-06T15:54:38.531Z,96426.16
2023-05-06T15:57:21.660Z,96428.10
2023-05-06T16:00:01.582Z,96425.52
2023-05-06T16:02:35.897Z,96423.58
2023-05-06T16:05:44.670Z,96423.35
2023-05-06T16:08:39.241Z,96423.11
2023-05-06T16:11:24.006Z,96424.91
2023-05-06T16:14:13.435Z,96425.62
2023-05-06T16:17:00.941Z,96421.16
2023-05-06T16:20:00.555Z,96418.91
2023-05-06T16:23:16.776Z,96418.63
2023-05-06T16:26:13.736Z,96420.36
2023-05-06T16:29:17.745Z,96419.69
2023-05-06T16:32:37.957Z,96420.65
2023-05-06T16:35:30.913Z,96420.30
2023-05-06T16:38:15.204Z,96419.49
2023-05-06T16:41:15.281Z,96422.23
2023-05-06T16:44:27.856Z,96423.09
2023-05-06T16:47:15.307Z,96421.97
2023-05-06T16:50:07.160Z,96422.48
2023-05-06T16:52:53.463Z,96421.29
2023-05-06T16:56:20.410Z,96423.70
2023-05-06T16:59:12.921Z,96421.48
2023-05-06T17:02:21.176Z,96425.33
2023-05-06T17:05:23.478Z,96427.05
2023-05-06T17:08:38.575Z,96431.24
2023-05-06T17:11:32.866Z,96429.15
2023-05-06T17:14:32.741Z,96433.24
2023-05-06T17:17:45.114Z,96441.17
2023-05-06T17:20:57.049Z,96446.00
2023-05-06T17:23:56.621Z,96446.08
2023-05-06T17:26:34.776Z,96454.48
2023-05-06T17:29:23.482Z,96457.64
2023-05-06T17:32:23.244Z,96463.09
2023-05-06T17:35:21.760Z,96468.01
2023-05-06T17:38:22.784Z,96476.92
2023-05-06T17:41:40.574Z,96480.09
2023-05-06T17:44:42.423Z,96490.23
2023-05-06T17:47:30.632Z,96483.05
2023-05-06T17:50:27.408Z,96485.62
2023-05-06T17:53:46.022Z,96483.64
2023-05-06T17:56:59.813Z,96484.80
2023-05-06T18:00:13.006Z,96484.11
2023-05-06T18:03:47.609Z,96486.23
2023-05-06T18:06:42.356Z,96497.94
2023-05-06T18:09:53.331Z,96504.73
2023-05-06T18:12:52.579Z,96506.17
2023-05-06T18:16:00.179Z,96503.34
2023-05-06T18:18:48.762Z,96507.75
2023-05-06T18:21:51.863Z,96511.77
2023-05-06T18:25:10.217Z,96506.70
2023-05-06T18:27:59.274Z,96506.27
2023-05-06T18:31:04.211Z,96509.05
2023-05-06T18:34:04.303Z,96515.90
2023-05-06T18:36:52.992Z,96526.04
2023-05-06T18:39:48.534Z,96527.20
2023-05-06T18:43:01.657Z,96530.77
2023-05-06T18:46:10.320Z,96529.10
2023-05-06T18:49:16.033Z,96526.39
2023-05-06T18:52:14.774Z,96526.55
2023-05-06T18:55:10.867Z,96530.30
2023-05-06T18:58:17.941Z,96533.21
2023-05-06T19:01:07.509Z,96531.73
2023-05-06T19:04:09.854Z,96532.00
2023-05-06T19:07:05.650Z,96535.34
2023-05-06T19:10:03.825Z,96538.29
2023-05-06T19:13:06.123Z,96539.45
2023-05-06T19:16:33.112Z,96537.23
2023-05-06T19:19:38.244Z,96531.61
2023-05-06T19:22:57.967Z,96529.52
2023-05-06T19:25:48.223Z,96526.48
2023-05-06T19:28:50.558Z,96528.34
2023-05-06T19:32:02.689Z,96527.14
2023-05-06T19:35:09.046Z,96525.06
2023-05-06T19:38:09.945Z,96535.48
2023-05-06T19:41:32.278Z,96531.30
2023-05-06T19:44:38.562Z,96532.09
2023-05-06T19:47:33.418Z,96535.21
2023-05-06T19:50:40.985Z,96538.17
2023-05-06T19:54:00.636Z,96535.39
2023-05-06T19:57:07.844Z,96535.36
2023-05-06T20:00:10.834Z,96535.78
2023-05-06T20:03:45.827Z,96540.55
2023-05-06T20:06:54.319Z,96541.09
2023-05-06T20:09:58.115Z,96546.00
2023-05-06T20:13:18.705Z,96545.97
2023-05-06T20:16:30.619Z,96544.77
2023-05-06T20:20:08.803Z,96547.14
2023-05-06T20:23:31.069Z,96548.59
2023-05-06T20:26:46.875Z,96555.36
2023-05-06T22:44:20.126Z,96529.70
2023-05-06T22:47:35.649Z,96525.99
2023-05-06T22:51:00.765Z,96525.45
2023-05-06T23:51:03.135Z,96497.98
2023-05-06T23:54:55.292Z,96497.43
2023-05-06T23:58:49.685Z,96498.41
